createdAt,value
2019-01-28T00:00:17.906Z,95.65
2019-01-28T00:02:58.734Z,97.53
2019-01-28T00:05:40.762Z,97.65
2019-01-28T00:08:23.111Z,98.56
2019-01-28T00:11:05.030Z,98.10
2019-01-28T00:13:46.524Z,97.90
2019-01-28T00:16:28.163Z,98.47
2019-01-28T00:19:09.708Z,98.63
2019-01-28T00:21:50.701Z,98.03
2019-01-28T00:24:31.764Z,98.22
2019-01-28T00:27:13.307Z,98.45
2019-01-28T00:29:56.288Z,97.82
2019-01-28T00:32:37.456Z,97.98
2019-01-28T00:35:18.531Z,98.32
2019-01-28T00:37:59.299Z,97.72
2019-01-28T00:40:41.270Z,97.77
2019-01-28T00:43:21.793Z,97.75
2019-01-28T00:46:03.381Z,98.03
2019-01-28T00:48:44.664Z,98.49
2019-01-28T00:51:26.105Z,97.74
2019-01-28T00:54:07.286Z,98.44
2019-01-28T00:56:48.944Z,97.78
2019-01-28T00:59:30.215Z,98.72
2019-01-28T01:02:11.151Z,97.98
2019-01-28T01:04:52.116Z,98.01
2019-01-28T01:07:34.782Z,97.64
2019-01-28T01:10:15.845Z,98.90
2019-01-28T01:13:00.590Z,98.77
2019-01-28T01:15:42.926Z,99.05
2019-01-28T01:18:23.916Z,100.00
2019-01-28T01:21:05.034Z,99.90
2019-01-28T01:23:46.822Z,98.51
2019-01-28T01:26:28.561Z,98.32
2019-01-28T01:29:09.268Z,98.11
2019-01-28T01:31:50.362Z,98.09
2019-01-28T01:34:31.081Z,96.77
2019-01-28T01:37:12.703Z,95.54
2019-01-28T01:39:54.498Z,96.29
2019-01-28T01:42:35.542Z,95.92
2019-01-28T01:45:16.540Z,96.89
2019-01-28T01:48:00.299Z,94.48
2019-01-28T01:50:43.336Z,95.06
2019-01-28T01:53:27.701Z,95.40
2019-01-28T01:56:08.663Z,96.08
2019-01-28T01:58:49.500Z,96.33
2019-01-28T02:01:31.226Z,95.47
2019-01-28T02:04:12.071Z,94.91
2019-01-28T02:06:53.494Z,95.67
2019-01-28T02:09:34.443Z,96.29
2019-01-28T02:12:15.355Z,94.70
2019-01-28T02:14:56.672Z,94.80
2019-01-28T02:17:37.905Z,95.54
2019-01-28T02:20:18.650Z,94.92
2019-01-28T02:22:59.610Z,95.05
2019-01-28T02:25:40.404Z,96.81
2019-01-28T02:28:22.576Z,95.16
2019-01-28T02:31:03.371Z,92.98
2019-01-28T02:33:44.419Z,94.21
2019-01-28T02:36:24.861Z,92.80
2019-01-28T02:39:06.289Z,92.99
2019-01-28T02:41:47.076Z,92.75
2019-01-28T02:44:28.952Z,91.90
2019-01-28T02:47:10.613Z,92.49
2019-01-28T02:49:51.776Z,91.75
2019-01-28T02:52:33.611Z,91.53
2019-01-28T02:55:15.010Z,88.26
2019-01-28T02:57:56.293Z,87.33
2019-01-28T03:00:37.446Z,85.15
2019-01-28T03:03:18.583Z,86.15
2019-01-28T03:05:59.405Z,85.05
2019-01-28T03:08:40.521Z,84.72
2019-01-28T03:11:22.034Z,82.39
2019-01-28T03:14:02.895Z,81.68
2019-01-28T03:16:43.901Z,77.91
2019-01-28T03:19:24.944Z,77.47
2019-01-28T03:22:05.826Z,77.69
2019-01-28T03:24:46.885Z,77.51
2019-01-28T03:27:28.500Z,77.20
2019-01-28T03:30:09.380Z,76.71
2019-01-28T03:32:50.590Z,78.17
2019-01-28T03:35:31.485Z,79.30
2019-01-28T03:38:12.347Z,79.16
2019-01-28T03:40:53.143Z,80.26
2019-01-28T03:43:34.120Z,80.08
2019-01-28T03:46:15.055Z,79.66
2019-01-28T03:51:10.886Z,80.98
2019-01-28T03:53:52.058Z,80.85
2019-01-28T03:56:32.989Z,82.49
2019-01-28T03:59:14.175Z,81.47
2019-01-28T04:01:55.893Z,83.55
2019-01-28T04:04:37.489Z,83.94
2019-01-28T04:07:18.461Z,84.11
2019-01-28T04:10:00.476Z,85.79
2019-01-28T04:12:41.823Z,84.87
2019-01-28T04:15:22.508Z,84.66
2019-01-28T04:18:03.497Z,83.71
2019-01-28T04:20:43.898Z,83.42
2019-01-28T04:23:24.770Z,83.66
2019-01-28T04:26:05.434Z,82.77
2019-01-28T04:28:46.141Z,82.20
2019-01-28T04:31:28.170Z,81.57
2019-01-28T04:34:08.484Z,82.27
2019-01-28T04:36:49.338Z,82.84
2019-01-28T04:39:30.344Z,82.29
2019-01-28T04:42:11.135Z,82.29
2019-01-28T04:44:52.166Z,81.25
2019-01-28T04:47:33.261Z,80.56
2019-01-28T04:50:14.081Z,79.23
2019-01-28T04:52:55.108Z,79.00
2019-01-28T04:55:36.369Z,78.09
2019-01-28T04:58:16.994Z,80.09
2019-01-28T05:00:58.219Z,79.61
2019-01-28T05:03:39.298Z,80.97
2019-01-28T05:06:20.460Z,80.22
2019-01-28T05:09:01.542Z,78.91
2019-01-28T05:11:41.829Z,79.76
2019-01-28T05:14:22.461Z,79.81
2019-01-28T05:17:02.772Z,79.45
2019-01-28T05:19:43.166Z,78.43
2019-01-28T05:22:23.855Z,78.52
2019-01-28T05:25:04.824Z,78.58
2019-01-28T05:27:45.431Z,78.41
2019-01-28T05:30:26.094Z,77.38
2019-01-28T05:33:08.686Z,76.24
2019-01-28T05:35:48.091Z,76.79
2019-01-28T05:38:30.960Z,75.68
2019-01-28T05:41:12.095Z,77.37
2019-01-28T05:43:52.690Z,77.16
2019-01-28T05:46:33.436Z,74.18
2019-01-28T05:49:14.316Z,75.13
2019-01-28T05:51:55.095Z,74.92
2019-01-28T05:54:36.169Z,74.95
2019-01-28T05:57:16.837Z,73.76
2019-01-28T05:59:57.589Z,76.02
2019-01-28T06:02:38.412Z,71.83
2019-01-28T06:05:19.033Z,74.40
2019-01-28T06:08:00.342Z,75.40
2019-01-28T06:10:41.101Z,75.01
2019-01-28T06:13:22.045Z,74.99
2019-01-28T06:16:02.429Z,75.46
2019-01-28T06:18:43.473Z,75.72
2019-01-28T06:21:24.120Z,75.61
2019-01-28T06:24:04.631Z,76.66
2019-01-28T06:26:45.267Z,75.35
2019-01-28T06:29:26.000Z,76.06
2019-01-28T06:32:07.075Z,75.88
2019-01-28T06:34:47.457Z,76.30
2019-01-28T06:37:28.342Z,75.64
2019-01-28T06:40:09.224Z,76.34
2019-01-28T06:42:49.798Z,74.87
2019-01-28T06:45:30.676Z,75.60
2019-01-28T06:48:11.641Z,73.90
2019-01-28T06:50:52.854Z,74.04
2019-01-28T06:53:33.576Z,73.80
2019-01-28T06:56:13.946Z,72.77
2019-01-28T06:58:55.089Z,73.33
2019-01-28T07:01:35.828Z,72.58
2019-01-28T07:04:16.142Z,72.05
2019-01-28T07:06:57.034Z,73.13
2019-01-28T07:09:38.273Z,73.19
2019-01-28T07:12:18.830Z,73.73
2019-01-28T07:14:59.518Z,75.05
2019-01-28T07:17:39.980Z,73.06
2019-01-28T07:20:20.243Z,73.35
2019-01-28T07:23:00.716Z,72.40
2019-01-28T07:25:41.252Z,74.61
2019-01-28T07:28:22.003Z,72.98
2019-01-28T07:31:02.174Z,72.90
2019-01-28T07:33:42.807Z,72.60
2019-01-28T07:36:23.659Z,74.29
2019-01-28T07:39:03.819Z,71.48
2019-01-28T07:41:44.086Z,68.30
2019-01-28T07:44:24.536Z,66.99
2019-01-28T07:47:04.853Z,67.03
2019-01-28T07:49:45.318Z,65.29
2019-01-28T07:52:25.667Z,66.89
2019-01-28T07:55:06.064Z,66.77
2019-01-28T07:57:46.200Z,66.08
2019-01-28T08:00:26.988Z,63.24
2019-01-28T08:03:07.035Z,64.51
2019-01-28T08:05:47.350Z,65.19
2019-01-28T08:08:27.931Z,63.62
2019-01-28T08:11:08.302Z,64.70
2019-01-28T08:13:48.861Z,65.73
2019-01-28T08:16:29.544Z,66.54
2019-01-28T08:19:09.896Z,67.00
2019-01-28T08:21:50.875Z,67.47
2019-01-28T08:24:31.019Z,65.80
2019-01-28T08:27:12.042Z,65.64
2019-01-28T08:29:52.434Z,66.55
2019-01-28T08:32:32.504Z,67.52
2019-01-28T08:35:12.850Z,67.75
2019-01-28T08:37:53.933Z,67.67
2019-01-28T08:40:34.896Z,67.31
2019-01-28T08:43:15.586Z,67.23
2019-01-28T08:45:55.783Z,65.96
2019-01-28T08:48:36.130Z,64.33
2019-01-28T08:51:16.318Z,66.49
2019-01-28T08:53:56.582Z,67.37
2019-01-28T08:56:36.899Z,66.44
2019-01-28T08:59:17.368Z,65.75
2019-01-28T09:01:57.889Z,67.18
2019-01-28T09:04:38.881Z,65.93
2019-01-28T09:07:19.199Z,66.61
2019-01-28T09:09:59.644Z,66.99
2019-01-28T09:12:40.258Z,66.55
2019-01-28T09:15:20.398Z,66.66
2019-01-28T09:18:00.996Z,66.71
2019-01-28T09:20:41.583Z,65.28
2019-01-28T09:23:22.342Z,66.07
2019-01-28T09:26:03.617Z,65.87
2019-01-28T09:28:44.223Z,65.83
2019-01-28T09:31:25.094Z,65.64
2019-01-28T09:34:06.208Z,66.74
2019-01-28T09:36:47.424Z,65.64
2019-01-28T09:39:30.784Z,64.62
2019-01-28T09:42:12.130Z,64.49
2019-01-28T09:44:52.553Z,64.46
2019-01-28T09:47:33.300Z,67.56
2019-01-28T09:50:13.760Z,64.40
2019-01-28T09:52:54.449Z,66.10
2019-01-28T09:55:34.849Z,65.55
2019-01-28T09:58:15.476Z,65.91
2019-01-28T10:00:56.637Z,67.34
2019-01-28T10:03:37.533Z,68.04
2019-01-28T10:06:18.308Z,68.49
2019-01-28T10:08:59.638Z,69.20
2019-01-28T10:11:40.139Z,69.10
2019-01-28T10:14:21.112Z,69.83
2019-01-28T10:17:02.132Z,69.77
2019-01-28T10:19:43.387Z,69.02
2019-01-28T10:22:24.939Z,69.28
2019-01-28T10:25:05.935Z,68.79
2019-01-28T10:27:46.847Z,69.14
2019-01-28T10:30:28.163Z,68.56
2019-01-28T10:33:08.764Z,69.73
2019-01-28T10:35:49.434Z,69.92
2019-01-28T10:38:30.492Z,70.69
2019-01-28T10:41:11.355Z,71.37
2019-01-28T10:43:51.936Z,72.41
2019-01-28T10:46:32.958Z,72.00
2019-01-28T10:49:14.041Z,71.82
2019-01-28T10:51:55.203Z,72.54
2019-01-28T10:54:36.120Z,74.18
2019-01-28T10:57:16.894Z,73.29
2019-01-28T10:59:57.424Z,73.81
2019-01-28T11:02:38.445Z,74.75
2019-01-28T11:05:19.691Z,75.71
2019-01-28T11:08:00.778Z,75.82
2019-01-28T11:10:41.906Z,75.47
2019-01-28T11:13:22.706Z,76.14
2019-01-28T11:16:03.820Z,76.11
2019-01-28T11:18:44.826Z,77.09
2019-01-28T11:21:26.078Z,78.51
2019-01-28T11:24:06.734Z,79.75
2019-01-28T11:26:47.418Z,80.33
2019-01-28T11:29:28.133Z,81.27
2019-01-28T11:32:09.094Z,80.56
2019-01-28T11:34:50.548Z,81.01
2019-01-28T11:37:31.591Z,81.60
2019-01-28T11:40:12.288Z,81.89
2019-01-28T11:42:53.147Z,82.50
2019-01-28T11:45:33.468Z,84.34
2019-01-28T11:48:14.817Z,84.80
2019-01-28T11:50:56.107Z,84.44
2019-01-28T11:53:37.360Z,85.29
2019-01-28T11:56:18.522Z,85.77
2019-01-28T11:58:59.400Z,89.28
2019-01-28T12:01:40.466Z,89.45
2019-01-28T12:04:21.142Z,88.75
2019-01-28T12:07:02.383Z,89.20
2019-01-28T12:09:43.415Z,88.89
2019-01-28T12:12:24.382Z,90.38
2019-01-28T12:15:05.582Z,91.79
2019-01-28T12:17:46.437Z,92.22
2019-01-28T12:20:27.606Z,92.14
2019-01-28T12:23:08.448Z,92.02
2019-01-28T12:25:49.436Z,92.30
2019-01-28T12:28:30.046Z,92.44
2019-01-28T12:31:10.671Z,93.03
2019-01-28T12:33:51.647Z,93.91
2019-01-28T12:36:32.727Z,94.55
2019-01-28T12:39:14.217Z,94.94
2019-01-28T12:41:55.021Z,94.19
2019-01-28T12:44:35.861Z,95.26
2019-01-28T12:47:16.840Z,96.29
2019-01-28T12:49:58.068Z,96.35
2019-01-28T12:52:39.335Z,97.22
2019-01-28T12:55:20.366Z,97.20
2019-01-28T12:58:01.331Z,97.95
2019-01-28T13:00:42.232Z,98.61
2019-01-28T13:03:23.329Z,98.72
2019-01-28T13:06:04.368Z,98.78
2019-01-28T13:08:45.437Z,98.58
2019-01-28T13:11:26.383Z,98.66
2019-01-28T13:14:07.962Z,99.03
2019-01-28T13:16:48.968Z,98.84
2019-01-28T13:19:30.225Z,99.03
2019-01-28T13:22:11.539Z,98.63
2019-01-28T13:24:52.769Z,98.57
2019-01-28T13:27:33.321Z,98.01
2019-01-28T13:30:14.481Z,97.56
2019-01-28T13:32:55.668Z,97.67
2019-01-28T13:35:36.729Z,97.79
2019-01-28T13:38:17.476Z,97.14
2019-01-28T13:40:58.658Z,97.24
2019-01-28T13:43:40.128Z,97.31
2019-01-28T13:46:21.130Z,97.13
2019-01-28T13:49:02.042Z,96.70
2019-01-28T13:51:43.080Z,97.31
2019-01-28T13:54:23.841Z,97.57
2019-01-28T13:57:04.903Z,96.73
2019-01-28T13:59:45.390Z,96.96
2019-01-28T14:02:26.558Z,97.14
2019-01-28T14:05:07.484Z,97.98
2019-01-28T14:07:48.722Z,97.84
2019-01-28T14:10:29.474Z,98.56
2019-01-28T14:13:10.703Z,99.71
2019-01-28T14:15:51.972Z,100.00
2019-01-28T14:18:32.403Z,100.00
2019-01-28T14:21:13.045Z,100.00
2019-01-28T14:23:53.855Z,100.00
2019-01-28T14:26:34.847Z,100.00
2019-01-28T14:29:16.125Z,100.00
2019-01-28T14:31:57.480Z,100.00
2019-01-28T14:34:38.057Z,100.00
2019-01-28T14:37:18.793Z,100.00
2019-01-28T14:39:59.160Z,100.00
2019-01-28T14:42:40.342Z,100.00
2019-01-28T14:45:21.883Z,100.00
2019-01-28T14:48:03.013Z,100.00
2019-01-28T14:50:43.663Z,100.00
2019-01-28T14:53:25.110Z,100.00
2019-01-28T14:56:06.126Z,100.00
2019-01-28T14:58:46.999Z,100.00
2019-01-28T15:01:27.561Z,100.00
2019-01-28T15:04:09.890Z,100.00
2019-01-28T15:06:49.877Z,100.00
2019-01-28T15:09:30.893Z,100.00
2019-01-28T15:12:11.823Z,100.00
2019-01-28T15:14:53.078Z,100.00
2019-01-28T15:17:33.956Z,100.00
2019-01-28T15:20:14.725Z,100.00
2019-01-28T15:22:55.583Z,100.00
2019-01-28T15:25:36.685Z,100.00
2019-01-28T15:28:17.611Z,100.00
2019-01-28T15:30:58.551Z,100.00
2019-01-28T15:33:39.232Z,100.00
2019-01-28T15:36:20.232Z,100.00
2019-01-28T15:39:01.100Z,100.00
2019-01-28T15:41:41.866Z,100.00
2019-01-28T15:44:22.521Z,100.00
2019-01-28T15:47:03.672Z,100.00
2019-01-28T15:49:44.383Z,100.00
2019-01-28T15:52:25.210Z,100.00
2019-01-28T15:55:05.676Z,100.00
2019-01-28T15:57:46.235Z,100.00
2019-01-28T16:00:27.238Z,100.00
2019-01-28T16:03:08.151Z,100.00
2019-01-28T16:05:49.181Z,100.00
2019-01-28T16:08:29.905Z,100.00
2019-01-28T16:11:10.733Z,100.00
2019-01-28T16:13:51.652Z,100.00
2019-01-28T16:16:32.726Z,100.00
2019-01-28T16:19:14.071Z,100.00
2019-01-28T16:21:55.168Z,100.00
2019-01-28T16:24:35.803Z,100.00
2019-01-28T16:27:16.459Z,100.00
2019-01-28T16:29:57.720Z,100.00
2019-01-28T16:32:38.733Z,100.00
2019-01-28T16:35:19.551Z,100.00
2019-01-28T16:38:00.981Z,100.00
2019-01-28T16:40:41.695Z,100.00
2019-01-28T16:43:22.520Z,100.00
2019-01-28T16:46:03.475Z,100.00
2019-01-28T16:48:44.151Z,100.00
2019-01-28T16:51:25.131Z,100.00
2019-01-28T16:54:05.888Z,100.00
2019-01-28T16:56:47.075Z,100.00
2019-01-28T16:59:28.055Z,100.00
2019-01-28T17:02:08.621Z,100.00
2019-01-28T17:04:52.562Z,100.00
2019-01-28T17:07:33.411Z,100.00
2019-01-28T17:10:14.387Z,100.00
2019-01-28T17:12:55.075Z,100.00
2019-01-28T17:15:36.358Z,100.00
2019-01-28T17:18:17.584Z,100.00
2019-01-28T17:20:58.212Z,100.00
2019-01-28T17:23:39.238Z,100.00
2019-01-28T17:26:19.952Z,100.00
2019-01-28T17:29:00.865Z,100.00
2019-01-28T17:31:42.076Z,100.00
2019-01-28T17:34:22.796Z,100.00
2019-01-28T17:37:03.541Z,100.00
2019-01-28T17:39:44.611Z,100.00
2019-01-28T17:42:25.701Z,100.00
2019-01-28T17:45:06.677Z,100.00
2019-01-28T17:47:47.951Z,100.00
2019-01-28T17:50:29.431Z,100.00
2019-01-28T17:53:10.811Z,100.00
2019-01-28T17:55:52.051Z,100.00
2019-01-28T17:58:32.935Z,100.00
2019-01-28T18:01:13.936Z,100.00
2019-01-28T18:03:54.803Z,100.00
2019-01-28T18:06:35.785Z,100.00
2019-01-28T18:09:16.863Z,100.00
2019-01-28T18:11:57.742Z,100.00
2019-01-28T18:14:38.806Z,100.00
2019-01-28T18:17:19.571Z,100.00
2019-01-28T18:20:00.470Z,100.00
2019-01-28T18:22:41.624Z,100.00
2019-01-28T18:25:22.962Z,100.00
2019-01-28T18:28:03.817Z,100.00
2019-01-28T18:30:44.777Z,100.00
2019-01-28T18:33:26.053Z,100.00
2019-01-28T18:36:07.129Z,100.00
2019-01-28T18:38:48.285Z,100.00
2019-01-28T18:41:28.953Z,100.00
2019-01-28T18:44:09.922Z,100.00
2019-01-28T18:46:50.852Z,100.00
2019-01-28T18:49:31.871Z,100.00
2019-01-28T18:52:12.793Z,100.00
2019-01-28T18:54:53.756Z,100.00
2019-01-28T18:57:34.177Z,100.00
2019-01-28T19:00:15.558Z,100.00
2019-01-28T19:02:56.243Z,100.00
2019-01-28T19:05:37.002Z,100.00
2019-01-28T19:08:18.133Z,100.00
2019-01-28T19:10:58.846Z,100.00
2019-01-28T19:13:40.127Z,100.00
2019-01-28T19:16:21.195Z,100.00
2019-01-28T19:19:02.476Z,100.00
2019-01-28T19:21:43.256Z,100.00
2019-01-28T19:24:23.679Z,100.00
2019-01-28T19:27:04.115Z,100.00
2019-01-28T19:29:45.153Z,100.00
2019-01-28T19:32:27.685Z,100.00
2019-01-28T19:35:07.609Z,100.00
2019-01-28T19:37:48.696Z,100.00
2019-01-28T19:40:29.449Z,100.00
2019-01-28T19:43:10.372Z,100.00
2019-01-28T19:45:51.642Z,100.00
2019-01-28T19:48:32.685Z,100.00
2019-01-28T19:51:15.890Z,100.00
2019-01-28T19:53:55.257Z,100.00
2019-01-28T19:56:36.060Z,100.00
2019-01-28T19:59:16.874Z,100.00
2019-01-28T20:01:57.103Z,100.00
2019-01-28T20:04:38.425Z,100.00
2019-01-28T20:07:19.180Z,100.00
2019-01-28T20:10:00.043Z,100.00
2019-01-28T20:12:41.045Z,100.00
2019-01-28T20:15:22.231Z,100.00
2019-01-28T20:18:02.713Z,100.00
2019-01-28T20:20:43.025Z,100.00
2019-01-28T20:23:23.637Z,100.00
2019-01-28T20:26:04.577Z,100.00
2019-01-28T20:28:44.836Z,100.00
2019-01-28T20:31:25.597Z,100.00
2019-01-28T20:34:06.755Z,100.00
2019-01-28T20:36:47.528Z,100.00
2019-01-28T20:39:28.297Z,100.00
2019-01-28T20:42:09.278Z,100.00
2019-01-28T20:44:50.197Z,100.00
2019-01-28T20:47:30.927Z,100.00
2019-01-28T20:50:11.854Z,100.00
2019-01-28T20:52:52.685Z,100.00
2019-01-28T20:55:33.482Z,100.00
2019-01-28T20:58:14.091Z,100.00
2019-01-28T21:00:55.014Z,100.00
2019-01-28T21:03:35.760Z,100.00
2019-01-28T21:06:16.674Z,100.00
2019-01-28T21:08:57.122Z,100.00
2019-01-28T21:11:37.840Z,100.00
2019-01-28T21:14:18.950Z,100.00
2019-01-28T21:16:59.573Z,100.00
2019-01-28T21:19:40.555Z,100.00
2019-01-28T21:22:21.544Z,100.00
2019-01-28T21:25:02.671Z,100.00
2019-01-28T21:27:43.241Z,100.00
2019-01-28T21:30:24.031Z,100.00
2019-01-28T21:33:04.936Z,100.00
2019-01-28T21:35:45.690Z,100.00
2019-01-28T21:38:27.296Z,100.00
2019-01-28T21:41:08.554Z,100.00
2019-01-28T21:43:49.579Z,100.00
2019-01-28T21:46:30.807Z,100.00
2019-01-28T21:49:12.289Z,100.00
2019-01-28T21:51:52.935Z,100.00
2019-01-28T21:54:33.624Z,100.00
2019-01-28T21:57:14.535Z,100.00
2019-01-28T21:59:55.607Z,100.00
2019-01-28T22:02:36.117Z,100.00
2019-01-28T22:05:16.830Z,100.00
2019-01-28T22:07:57.537Z,100.00
2019-01-28T22:10:38.658Z,100.00
2019-01-28T22:13:19.665Z,100.00
2019-01-28T22:16:00.616Z,100.00
2019-01-28T22:18:41.567Z,100.00
2019-01-28T22:21:22.549Z,99.12
2019-01-28T22:24:03.350Z,99.25
2019-01-28T22:26:44.075Z,98.80
2019-01-28T22:29:24.761Z,98.93
2019-01-28T22:32:05.828Z,99.12
2019-01-28T22:34:47.863Z,99.02
2019-01-28T22:37:28.196Z,98.39
2019-01-28T22:40:08.638Z,98.87
2019-01-28T22:42:49.646Z,99.13
2019-01-28T22:45:30.409Z,98.25
2019-01-28T22:48:11.822Z,98.80
2019-01-28T22:50:52.836Z,99.80
2019-01-28T22:53:33.411Z,99.10
2019-01-28T22:56:14.486Z,98.91
2019-01-28T22:58:55.765Z,98.00
2019-01-28T23:01:37.269Z,97.69
2019-01-28T23:04:18.226Z,95.55
2019-01-28T23:06:59.344Z,95.47
2019-01-28T23:09:40.187Z,95.85
2019-01-28T23:12:20.839Z,95.46
2019-01-28T23:15:01.626Z,94.61
2019-01-28T23:17:42.484Z,93.63
2019-01-28T23:20:23.554Z,93.27
2019-01-28T23:23:04.615Z,93.49
2019-01-28T23:25:45.200Z,93.47
2019-01-28T23:28:26.146Z,92.80
2019-01-28T23:31:06.617Z,91.94
2019-01-28T23:33:46.956Z,91.78
2019-01-28T23:36:27.964Z,91.65
2019-01-28T23:39:09.089Z,90.09
2019-01-28T23:41:49.957Z,90.96
2019-01-28T23:44:31.314Z,90.55
2019-01-28T23:47:12.340Z,91.23
2019-01-28T23:49:53.344Z,91.65
2019-01-28T23:52:33.715Z,91.58
2019-01-28T23:55:13.901Z,91.41
2019-01-28T23:57:56.873Z,91.53
